createdAt,value
2019-03-27T00:02:09.991Z,3.90
2019-03-27T00:04:46.018Z,4.00
2019-03-27T00:07:22.007Z,3.90
2019-03-27T00:09:58.314Z,4.00
2019-03-27T00:12:33.349Z,3.90
2019-03-27T00:15:15.012Z,3.90
2019-03-27T00:17:50.585Z,3.70
2019-03-27T00:20:28.007Z,3.70
2019-03-27T00:23:04.013Z,3.70
2019-03-27T00:25:39.370Z,3.70
2019-03-27T00:28:14.406Z,3.70
2019-03-27T00:30:52.514Z,3.70
2019-03-27T00:33:28.020Z,3.70
2019-03-27T00:36:03.036Z,3.80
2019-03-27T00:38:40.272Z,3.90
2019-03-27T00:41:25.966Z,3.90
2019-03-27T00:44:02.045Z,4.00
2019-03-27T00:46:38.479Z,4.10
2019-03-27T00:49:18.222Z,4.10
2019-03-27T00:51:56.536Z,4.10
2019-03-27T00:54:33.030Z,4.00
2019-03-27T00:57:12.557Z,4.00
2019-03-27T00:59:48.393Z,3.90
2019-03-27T01:02:25.485Z,3.90
2019-03-27T01:05:02.021Z,3.90
2019-03-27T01:07:39.435Z,3.80
2019-03-27T01:10:32.698Z,3.80
2019-03-27T01:13:09.018Z,3.70
2019-03-27T01:15:45.631Z,3.80
2019-03-27T01:18:27.420Z,3.80
2019-03-27T01:21:05.320Z,3.80
2019-03-27T01:23:41.583Z,3.80
2019-03-27T01:26:17.229Z,3.80
2019-03-27T01:28:56.029Z,3.80
2019-03-27T01:31:31.395Z,3.70
2019-03-27T01:34:09.502Z,3.70
2019-03-27T01:36:46.581Z,3.70
2019-03-27T01:39:26.735Z,3.80
2019-03-27T01:42:09.350Z,3.90
2019-03-27T01:44:49.706Z,3.90
2019-03-27T01:47:28.432Z,3.80
2019-03-27T01:50:07.355Z,3.80
2019-03-27T01:52:43.035Z,3.80
2019-03-27T01:55:19.259Z,3.70
2019-03-27T01:57:56.343Z,3.70
2019-03-27T02:00:33.428Z,3.60
2019-03-27T02:03:12.962Z,3.50
2019-03-27T02:05:50.666Z,3.40
2019-03-27T02:08:31.643Z,3.40
2019-03-27T02:11:11.792Z,3.30
2019-03-27T02:13:52.554Z,3.20
2019-03-27T02:16:35.576Z,3.20
2019-03-27T02:19:16.552Z,3.10
2019-03-27T02:21:58.753Z,3.10
2019-03-27T02:24:35.622Z,3.00
2019-03-27T02:27:14.550Z,3.00
2019-03-27T02:29:51.424Z,2.90
2019-03-27T02:32:30.358Z,3.00
2019-03-27T02:35:06.055Z,3.10
2019-03-27T02:37:42.471Z,3.20
2019-03-27T02:40:20.373Z,3.00
2019-03-27T02:42:56.636Z,3.00
2019-03-27T02:45:35.560Z,3.10
2019-03-27T02:48:13.924Z,3.10
2019-03-27T02:50:51.352Z,3.10
2019-03-27T02:53:28.649Z,3.00
2019-03-27T02:56:06.949Z,3.10
2019-03-27T02:58:43.415Z,3.20
2019-03-27T03:01:20.908Z,3.20
2019-03-27T03:03:58.078Z,3.30
2019-03-27T03:06:33.103Z,3.30
2019-03-27T03:09:08.088Z,3.30
2019-03-27T03:11:44.730Z,3.30
2019-03-27T03:14:21.061Z,3.30
2019-03-27T03:16:56.433Z,3.20
2019-03-27T03:19:43.559Z,3.10
2019-03-27T03:22:28.450Z,3.20
2019-03-27T03:25:03.452Z,3.30
2019-03-27T03:27:41.577Z,3.30
2019-03-27T03:30:17.070Z,3.30
2019-03-27T03:32:53.100Z,3.40
2019-03-27T03:35:36.288Z,3.30
2019-03-27T03:38:12.090Z,3.30
2019-03-27T03:40:48.069Z,3.20
2019-03-27T03:43:23.067Z,3.20
2019-03-27T03:45:59.279Z,3.20
2019-03-27T03:48:35.546Z,3.20
2019-03-27T03:51:14.097Z,3.20
2019-03-27T03:53:52.373Z,3.20
2019-03-27T03:56:35.095Z,3.10
2019-03-27T03:59:10.424Z,3.00
2019-03-27T04:01:53.090Z,3.00
2019-03-27T04:04:35.653Z,3.00
2019-03-27T04:07:12.528Z,3.10
2019-03-27T04:09:48.378Z,3.10
2019-03-27T04:12:26.687Z,3.10
2019-03-27T04:15:07.660Z,3.00
2019-03-27T04:17:47.102Z,3.00
2019-03-27T04:20:24.110Z,3.00
2019-03-27T04:23:02.618Z,3.00
2019-03-27T04:26:07.227Z,2.90
2019-03-27T04:28:18.106Z,2.90
2019-03-27T04:30:55.128Z,2.90
2019-03-27T04:33:31.115Z,2.90
2019-03-27T04:36:07.397Z,2.80
2019-03-27T04:38:44.671Z,2.90
2019-03-27T04:41:20.742Z,2.90
2019-03-27T04:43:57.601Z,2.90
2019-03-27T04:46:33.662Z,2.90
2019-03-27T04:49:10.537Z,2.80
2019-03-27T04:51:44.341Z,2.80
2019-03-27T04:54:39.650Z,2.80
2019-03-27T04:57:23.500Z,2.90
2019-03-27T05:00:01.397Z,2.90
2019-03-27T05:02:44.001Z,2.90
2019-03-27T05:05:18.123Z,3.00
2019-03-27T05:08:03.489Z,2.90
2019-03-27T05:10:41.117Z,2.90
2019-03-27T05:13:18.472Z,2.70
2019-03-27T05:15:54.332Z,2.70
2019-03-27T05:18:31.621Z,2.80
2019-03-27T05:21:07.124Z,2.80
2019-03-27T05:23:43.110Z,2.80
2019-03-27T05:29:48.141Z,2.80
2019-03-27T05:35:55.488Z,2.90
2019-03-27T05:38:42.593Z,2.80
2019-03-27T05:41:19.672Z,2.90
2019-03-27T05:43:57.578Z,3.00
2019-03-27T05:46:36.144Z,3.00
2019-03-27T05:52:53.740Z,3.20
2019-03-27T05:55:34.284Z,3.40
2019-03-27T05:58:13.441Z,3.40
2019-03-27T06:04:05.691Z,3.30
2019-03-27T06:10:22.149Z,3.40
2019-03-27T06:12:57.348Z,3.60
2019-03-27T06:15:37.707Z,3.70
2019-03-27T06:22:03.553Z,4.00
2019-03-27T06:24:41.137Z,4.10
2019-03-27T06:27:20.386Z,4.10
2019-03-27T06:40:20.662Z,4.20
2019-03-27T06:42:59.590Z,4.20
2019-03-27T06:49:03.722Z,4.30
2019-03-27T06:55:07.437Z,4.40
2019-03-27T07:01:11.998Z,4.60
2019-03-27T07:07:16.944Z,4.70
2019-03-27T07:09:55.443Z,4.80
2019-03-27T07:12:42.039Z,4.80
2019-03-27T07:15:24.987Z,4.70
2019-03-27T07:18:00.454Z,4.70
2019-03-27T07:20:40.961Z,4.80
2019-03-27T07:23:17.868Z,5.00
2019-03-27T07:25:59.865Z,5.10
2019-03-27T07:28:41.041Z,5.00
2019-03-27T07:31:16.896Z,4.90
2019-03-27T07:33:52.951Z,5.00
2019-03-27T07:36:29.676Z,5.10
2019-03-27T07:42:57.107Z,5.10
2019-03-27T07:45:36.028Z,5.20
2019-03-27T07:48:11.883Z,5.30
2019-03-27T07:54:17.042Z,5.60
2019-03-27T08:00:28.679Z,5.70
2019-03-27T08:06:33.294Z,5.80
2019-03-27T08:09:09.148Z,5.80
2019-03-27T08:11:47.699Z,5.80
2019-03-27T08:14:28.226Z,5.80
2019-03-27T08:17:04.317Z,6.00
2019-03-27T08:19:41.160Z,6.00
2019-03-27T08:22:17.014Z,6.00
2019-03-27T08:24:54.306Z,6.10
2019-03-27T08:27:41.219Z,6.20
2019-03-27T08:30:23.697Z,6.20
2019-03-27T08:32:58.682Z,6.30
2019-03-27T08:35:34.096Z,6.40
2019-03-27T08:38:10.158Z,6.50
2019-03-27T08:40:47.232Z,6.60
2019-03-27T08:43:28.691Z,6.70
2019-03-27T08:46:05.083Z,6.70
2019-03-27T08:48:47.284Z,6.90
2019-03-27T08:51:23.979Z,6.90
2019-03-27T08:54:07.410Z,6.90
2019-03-27T08:56:42.684Z,7.00
2019-03-27T08:59:17.685Z,7.20
2019-03-27T09:01:55.151Z,7.10
2019-03-27T09:04:29.159Z,7.20
2019-03-27T09:07:09.213Z,7.30
2019-03-27T09:09:44.694Z,7.40
2019-03-27T09:12:30.033Z,7.40
2019-03-27T09:15:06.728Z,7.40
2019-03-27T09:17:47.710Z,7.40
2019-03-27T09:20:25.369Z,7.30
2019-03-27T09:23:02.248Z,7.50
2019-03-27T09:25:38.969Z,7.60
2019-03-27T09:28:17.236Z,7.70
2019-03-27T09:30:57.215Z,7.60
2019-03-27T09:33:35.729Z,7.60
2019-03-27T09:36:17.080Z,7.80
2019-03-27T09:38:58.982Z,7.80
2019-03-27T09:41:38.202Z,7.80
2019-03-27T09:44:13.031Z,7.70
2019-03-27T09:46:52.979Z,7.80
2019-03-27T09:49:29.040Z,7.90
2019-03-27T09:52:04.723Z,8.10
2019-03-27T09:54:50.168Z,8.20
2019-03-27T10:01:04.946Z,7.90
2019-03-27T10:07:07.241Z,8.30
2019-03-27T10:13:23.705Z,8.10
2019-03-27T10:16:05.711Z,8.10
2019-03-27T10:18:50.111Z,8.00
2019-03-27T10:21:27.196Z,8.10
2019-03-27T10:24:03.251Z,8.30
2019-03-27T10:30:28.293Z,8.30
2019-03-27T10:36:36.305Z,8.40
2019-03-27T10:39:19.116Z,8.40
2019-03-27T10:41:59.280Z,8.30
2019-03-27T10:44:34.923Z,8.60
2019-03-27T10:47:13.022Z,8.90
2019-03-27T10:52:21.715Z,9.10
2019-03-27T10:58:41.151Z,9.10
2019-03-27T11:04:44.469Z,9.30
2019-03-27T11:10:37.131Z,9.50
2019-03-27T11:13:12.718Z,9.50
2019-03-27T11:15:53.346Z,9.50
2019-03-27T11:18:30.717Z,9.60
2019-03-27T11:21:30.239Z,9.60
2019-03-27T11:27:34.727Z,9.80
2019-03-27T11:30:13.745Z,9.80
2019-03-27T11:42:18.288Z,10.00
2019-03-27T11:48:24.590Z,10.00
2019-03-27T11:54:28.195Z,10.00
2019-03-27T12:00:36.436Z,10.00
2019-03-27T12:03:10.725Z,10.00
2019-03-27T12:12:24.733Z,10.20
2019-03-27T12:15:06.212Z,10.20
2019-03-27T12:17:41.763Z,10.20
2019-03-27T12:20:17.749Z,10.30
2019-03-27T12:23:01.349Z,10.20
2019-03-27T12:25:44.163Z,10.10
2019-03-27T12:28:20.426Z,10.20
2019-03-27T12:31:00.169Z,10.20
2019-03-27T12:33:36.228Z,10.30
2019-03-27T12:36:13.746Z,10.40
2019-03-27T12:38:55.672Z,10.50
2019-03-27T12:41:33.067Z,10.60
2019-03-27T12:44:07.418Z,10.80
2019-03-27T12:46:52.123Z,10.90
2019-03-27T12:49:27.763Z,10.90
2019-03-27T12:52:05.615Z,10.90
2019-03-27T12:54:39.228Z,10.70
2019-03-27T12:57:16.105Z,10.60
2019-03-27T12:59:57.975Z,10.50
2019-03-27T13:02:37.230Z,10.30
2019-03-27T13:05:16.973Z,10.30
2019-03-27T13:07:53.444Z,10.30
2019-03-27T13:10:28.772Z,10.30
2019-03-27T13:16:44.283Z,10.60
2019-03-27T13:22:48.213Z,10.60
2019-03-27T13:28:53.986Z,10.40
2019-03-27T13:34:58.783Z,10.70
2019-03-27T13:40:53.244Z,10.50
2019-03-27T13:43:32.994Z,10.40
2019-03-27T13:46:13.346Z,10.40
2019-03-27T13:52:16.784Z,10.60
2019-03-27T13:54:52.308Z,10.40
2019-03-27T14:01:24.308Z,10.60
2019-03-27T14:04:02.199Z,10.90
2019-03-27T14:06:44.557Z,10.90
2019-03-27T14:09:17.997Z,10.80
2019-03-27T14:11:55.693Z,10.70
2019-03-27T14:14:30.316Z,10.60
2019-03-27T14:17:12.732Z,10.60
2019-03-27T14:19:49.249Z,10.70
2019-03-27T14:25:57.998Z,10.50
2019-03-27T14:32:09.338Z,10.40
2019-03-27T14:38:16.795Z,10.30
2019-03-27T14:40:57.518Z,10.50
2019-03-27T14:43:45.453Z,10.60
2019-03-27T14:46:29.932Z,10.70
2019-03-27T14:49:04.798Z,10.50
2019-03-27T14:51:44.798Z,10.50
2019-03-27T14:54:18.810Z,10.60
2019-03-27T14:56:55.161Z,10.40
2019-03-27T14:59:30.811Z,10.20
2019-03-27T15:05:38.017Z,10.10
2019-03-27T15:11:42.148Z,10.20
2019-03-27T15:14:18.411Z,10.30
2019-03-27T15:16:54.264Z,10.30
2019-03-27T15:23:05.363Z,10.30
2019-03-27T15:25:41.010Z,10.30
2019-03-27T15:28:16.658Z,10.30
2019-03-27T15:30:52.101Z,10.40
2019-03-27T15:33:33.346Z,10.50
2019-03-27T15:36:10.361Z,10.70
2019-03-27T15:38:51.305Z,11.10
2019-03-27T15:41:35.035Z,11.10
2019-03-27T15:44:14.337Z,11.40
2019-03-27T15:47:02.427Z,11.70
2019-03-27T15:49:36.319Z,11.70
2019-03-27T15:52:13.738Z,11.90
2019-03-27T15:54:55.249Z,11.70
2019-03-27T15:57:36.327Z,11.30
2019-03-27T16:00:15.837Z,10.60
2019-03-27T16:02:58.934Z,10.40
2019-03-27T16:05:34.615Z,10.20
2019-03-27T16:08:11.688Z,10.10
2019-03-27T16:10:57.357Z,10.00
2019-03-27T16:13:33.139Z,9.80
2019-03-27T16:19:51.490Z,9.80
2019-03-27T16:22:26.150Z,9.90
2019-03-27T16:28:19.806Z,9.90
2019-03-27T16:34:39.145Z,9.80
2019-03-27T16:37:22.117Z,9.80
2019-03-27T16:40:05.030Z,9.80
2019-03-27T16:42:43.456Z,9.70
2019-03-27T16:45:20.647Z,9.80
2019-03-27T16:58:17.343Z,9.40
2019-03-27T17:00:58.111Z,9.40
2019-03-27T17:07:03.261Z,9.40
2019-03-27T17:13:15.394Z,9.30
2019-03-27T17:15:54.523Z,9.30
2019-03-27T17:18:43.274Z,9.30
2019-03-27T17:24:55.878Z,9.30
2019-03-27T17:27:35.141Z,9.20
2019-03-27T17:30:11.196Z,9.10
2019-03-27T17:32:49.014Z,9.10
2019-03-27T17:35:29.448Z,9.10
2019-03-27T17:41:34.200Z,9.10
2019-03-27T17:47:30.790Z,9.10
2019-03-27T17:53:44.111Z,9.00
2019-03-27T17:56:21.185Z,9.00
2019-03-27T17:58:56.014Z,8.90
2019-03-27T18:04:58.784Z,8.80
2019-03-27T18:07:40.713Z,8.80
2019-03-27T18:10:15.745Z,8.70
2019-03-27T18:16:22.234Z,8.60
2019-03-27T18:19:03.128Z,8.60
2019-03-27T18:25:23.519Z,8.60
2019-03-27T18:31:26.629Z,8.50
2019-03-27T18:37:48.995Z,8.50
2019-03-27T18:44:05.083Z,8.40
2019-03-27T18:46:43.665Z,8.40
2019-03-27T18:49:19.207Z,8.30
2019-03-27T18:55:39.686Z,8.30
2019-03-27T19:01:55.497Z,8.30
2019-03-27T19:08:11.720Z,8.10
2019-03-27T19:10:59.018Z,8.10
2019-03-27T19:13:38.778Z,8.00
2019-03-27T19:16:16.480Z,8.00
2019-03-27T19:18:51.230Z,7.90
2019-03-27T19:21:26.744Z,7.90
2019-03-27T19:24:13.296Z,7.90
2019-03-27T19:37:04.729Z,7.90
2019-03-27T19:39:42.247Z,7.80
2019-03-27T19:45:50.660Z,7.70
2019-03-27T19:51:54.235Z,7.60
2019-03-27T19:58:02.814Z,7.50
2019-03-27T20:04:06.128Z,7.40
2019-03-27T20:10:11.696Z,7.30
2019-03-27T20:12:48.984Z,7.50
2019-03-27T20:15:24.099Z,7.50
2019-03-27T20:21:37.269Z,7.50
2019-03-27T20:27:18.468Z,7.30
2019-03-27T20:29:54.006Z,7.30
2019-03-27T20:32:29.148Z,7.20
2019-03-27T20:38:39.022Z,7.10
2019-03-27T20:44:43.749Z,7.10
2019-03-27T20:47:20.774Z,7.00
2019-03-27T20:49:56.395Z,7.00
2019-03-27T20:52:34.709Z,6.90
2019-03-27T20:55:10.245Z,7.00
2019-03-27T21:01:16.425Z,6.90
2019-03-27T21:03:51.289Z,6.90
2019-03-27T21:06:28.296Z,6.90
2019-03-27T21:09:08.566Z,6.90
2019-03-27T21:11:47.725Z,6.90
2019-03-27T21:17:28.367Z,6.90
2019-03-27T21:23:31.620Z,6.90
2019-03-27T21:29:36.431Z,6.70
2019-03-27T21:32:12.833Z,6.60
2019-03-27T21:34:48.688Z,6.50
2019-03-27T21:37:25.767Z,6.50
2019-03-27T21:40:01.011Z,6.50
2019-03-27T21:42:36.040Z,6.50
2019-03-27T21:45:12.920Z,6.50
2019-03-27T21:47:48.598Z,6.50
2019-03-27T21:50:24.737Z,6.50
2019-03-27T21:53:02.937Z,6.50
2019-03-27T22:02:11.396Z,6.50
2019-03-27T22:07:51.354Z,6.60
2019-03-27T22:13:54.903Z,6.30
2019-03-27T22:19:57.985Z,6.30
2019-03-27T22:26:01.638Z,6.30
2019-03-27T22:32:04.205Z,6.30
2019-03-27T22:38:09.977Z,6.20
2019-03-27T22:44:19.848Z,6.10
2019-03-27T22:46:55.649Z,6.20
2019-03-27T22:52:59.668Z,6.10
2019-03-27T22:55:48.925Z,6.00
2019-03-27T22:58:13.224Z,6.00
2019-03-27T23:00:55.851Z,6.00
2019-03-27T23:06:48.265Z,5.80
2019-03-27T23:12:51.973Z,5.80
2019-03-27T23:15:42.982Z,5.80
2019-03-27T23:21:59.665Z,5.90
2019-03-27T23:24:35.068Z,5.80
2019-03-27T23:27:09.879Z,5.80
2019-03-27T23:29:46.171Z,5.80
2019-03-27T23:42:18.694Z,5.70
2019-03-27T23:44:54.025Z,5.80
2019-03-27T23:51:08.679Z,5.70
2019-03-27T23:57:24.201Z,5.80
